Time;durP1;ratioP1;P1;durP2;ratioP2;P2;SDS_P1;SDS_P2;PMS_P1;PMS_P2;Temp;Humidity;BMP_temperature;BMP_pressure;BME280_temperature;BME280_humidity;BME280_pressure;Samples;Min_cycle;Max_cycle;Signal;HPM_P1;HPM_P2
2022/03/23 00:02:25;;;;;;;41.15;20.70;;;10.20;74.70;;;;;;7337885;19;111386;-83
2022/03/23 00:04:54;;;;;;;37.22;19.80;;;10.10;74.40;;;;;;7336921;19;112964;-83
2022/03/23 00:07:21;;;;;;;36.13;19.02;;;10.10;74.10;;;;;;7338173;19;110206;-83
2022/03/23 00:09:49;;;;;;;39.88;21.45;;;10.10;74.10;;;;;;7336880;19;111414;-83
2022/03/23 00:12:24;;;;;;;38.42;19.27;;;10.10;74.30;;;;;;7336871;19;114849;-82
2022/03/23 00:14:51;;;;;;;40.95;20.30;;;10.10;74.10;;;;;;7337858;19;110765;-83
2022/03/23 00:17:18;;;;;;;41.30;21.17;;;10.10;74.30;;;;;;7335480;19;112096;-83
2022/03/23 00:19:45;;;;;;;47.55;21.85;;;10.00;74.30;;;;;;7336402;19;112204;-83
2022/03/23 00:22:13;;;;;;;40.63;21.15;;;10.00;75.20;;;;;;7339039;19;111951;-83
2022/03/23 00:24:40;;;;;;;44.40;21.20;;;9.90;74.20;;;;;;7335243;19;111764;-83
2022/03/23 00:27:07;;;;;;;38.28;20.13;;;9.90;74.50;;;;;;7336420;19;110607;-83
2022/03/23 00:29:34;;;;;;;40.25;22.38;;;9.90;74.80;;;;;;7336266;19;111688;-83
2022/03/23 00:32:02;;;;;;;34.03;20.42;;;9.80;74.60;;;;;;7338122;19;110666;-83
2022/03/23 00:34:29;;;;;;;44.65;22.20;;;9.80;74.50;;;;;;7337086;19;110381;-83
2022/03/23 00:36:57;;;;;;;42.20;21.27;;;9.80;74.90;;;;;;7336432;19;113403;-83
2022/03/23 00:39:24;;;;;;;43.65;20.95;;;9.70;74.80;;;;;;7337982;19;112064;-83
2022/03/23 00:41:52;;;;;;;43.65;21.40;;;9.70;75.00;;;;;;7335334;19;110506;-83
2022/03/23 00:44:20;;;;;;;34.47;20.17;;;9.70;74.80;;;;;;7340903;19;110680;-83
2022/03/23 00:46:47;;;;;;;49.92;21.95;;;9.70;75.10;;;;;;7334963;19;110451;-83
2022/03/23 00:49:14;;;;;;;42.25;20.77;;;9.60;75.40;;;;;;7335138;19;111354;-83
2022/03/23 00:51:41;;;;;;;39.17;20.95;;;9.60;75.60;;;;;;7335727;19;111796;-83
2022/03/23 00:54:09;;;;;;;49.33;21.13;;;9.60;75.40;;;;;;7336367;19;110921;-83
2022/03/23 00:56:37;;;;;;;42.58;21.90;;;9.60;75.40;;;;;;7335022;19;111694;-83
2022/03/23 00:59:07;;;;;;;41.72;21.75;;;9.60;75.20;;;;;;7335054;19;111768;-83
2022/03/23 01:01:34;;;;;;;42.90;20.88;;;9.50;75.70;;;;;;7336418;19;110761;-83
2022/03/23 01:04:02;;;;;;;42.00;21.75;;;9.50;75.60;;;;;;7334329;19;111519;-84
2022/03/23 01:06:29;;;;;;;40.17;20.65;;;9.50;75.60;;;;;;7340150;19;112067;-83
2022/03/23 01:08:56;;;;;;;37.33;20.25;;;9.50;75.50;;;;;;7334393;19;111614;-83
2022/03/23 01:11:23;;;;;;;34.13;19.98;;;9.40;75.20;;;;;;7335929;19;112017;-83
2022/03/23 01:13:50;;;;;;;40.38;20.52;;;9.40;75.00;;;;;;7337599;19;110571;-83
2022/03/23 01:16:18;;;;;;;37.22;21.13;;;9.40;75.00;;;;;;7336011;19;112904;-83
2022/03/23 01:18:45;;;;;;;42.60;22.80;;;9.40;75.30;;;;;;7335537;19;112241;-83
2022/03/23 01:21:13;;;;;;;44.03;22.38;;;9.40;75.60;;;;;;7336062;19;110613;-83
2022/03/23 01:23:40;;;;;;;37.15;23.75;;;9.40;76.40;;;;;;7333248;19;111756;-83
2022/03/23 01:26:08;;;;;;;39.17;23.00;;;9.30;76.60;;;;;;7336186;19;112045;-83
2022/03/23 01:28:36;;;;;;;40.30;22.20;;;9.30;77.20;;;;;;7341860;19;110684;-83
2022/03/23 01:31:03;;;;;;;38.63;21.73;;;9.20;76.90;;;;;;7335278;19;113470;-83
2022/03/23 01:33:30;;;;;;;41.13;22.17;;;9.20;77.00;;;;;;7336288;19;110856;-83
2022/03/23 01:35:57;;;;;;;42.65;22.58;;;9.10;77.10;;;;;;7336726;19;111814;-83
2022/03/23 01:38:24;;;;;;;42.28;21.50;;;9.10;77.30;;;;;;7336032;19;110959;-84
2022/03/23 01:40:52;;;;;;;35.22;20.45;;;9.00;77.50;;;;;;7335351;19;110458;-83
2022/03/23 01:43:19;;;;;;;36.60;20.80;;;8.90;77.40;;;;;;7335226;19;111287;-83
2022/03/23 01:45:46;;;;;;;40.03;22.10;;;8.90;77.40;;;;;;7333358;19;111747;-83
2022/03/23 01:48:14;;;;;;;34.47;19.92;;;8.80;77.40;;;;;;7333613;19;110505;-83
2022/03/23 01:50:41;;;;;;;41.70;21.90;;;8.70;77.50;;;;;;7337877;19;112458;-83
2022/03/23 01:53:09;;;;;;;40.78;21.42;;;8.70;77.80;;;;;;7332776;19;111224;-82
2022/03/23 01:55:36;;;;;;;37.80;21.67;;;8.70;78.30;;;;;;7332332;19;111375;-83
2022/03/23 01:58:03;;;;;;;40.80;22.10;;;8.60;78.80;;;;;;7334206;19;111752;-83
2022/03/23 02:00:30;;;;;;;39.30;21.42;;;8.40;79.00;;;;;;7333166;19;110180;-82
2022/03/23 02:02:57;;;;;;;36.00;21.73;;;8.40;79.20;;;;;;7334652;19;111002;-83
2022/03/23 02:05:25;;;;;;;39.28;22.10;;;8.30;79.40;;;;;;7336002;19;111417;-83
2022/03/23 02:07:55;;;;;;;43.47;22.48;;;8.20;80.00;;;;;;7333408;19;110323;-83
2022/03/23 02:10:22;;;;;;;37.83;21.85;;;8.10;80.00;;;;;;7340905;19;113254;-83
2022/03/23 02:12:49;;;;;;;35.38;21.98;;;8.10;79.80;;;;;;7332925;19;111377;-83
2022/03/23 02:15:21;;;;;;;39.42;21.92;;;8.10;79.60;;;;;;7334515;19;111410;-83
2022/03/23 02:17:53;;;;;;;44.93;21.57;;;8.10;79.30;;;;;;7333242;19;112430;-82
2022/03/23 02:20:20;;;;;;;40.67;22.80;;;8.10;79.20;;;;;;7334451;19;110828;-83
2022/03/23 02:22:48;;;;;;;42.17;21.93;;;8.10;79.30;;;;;;7341787;19;111431;-83
2022/03/23 02:25:20;;;;;;;51.50;22.03;;;8.00;79.30;;;;;;7338743;19;111777;-83
2022/03/23 02:27:48;;;;;;;42.50;21.27;;;8.00;79.50;;;;;;7341667;19;110707;-82
2022/03/23 02:30:16;;;;;;;42.47;22.83;;;8.00;79.50;;;;;;7340216;19;114571;-83
2022/03/23 02:32:43;;;;;;;40.33;21.95;;;7.90;79.50;;;;;;7345927;19;111293;-83
2022/03/23 02:35:13;;;;;;;40.33;21.65;;;7.90;79.60;;;;;;7340730;19;110965;-83
2022/03/23 02:37:40;;;;;;;36.23;21.07;;;7.80;79.90;;;;;;7340745;19;112264;-83
2022/03/23 02:40:09;;;;;;;40.97;21.10;;;7.80;79.90;;;;;;7341062;19;111852;-83
2022/03/23 02:42:38;;;;;;;36.03;22.03;;;7.70;80.30;;;;;;7341856;19;111326;-83
2022/03/23 02:45:06;;;;;;;40.13;22.07;;;7.70;80.00;;;;;;7338988;19;115233;-82
2022/03/23 02:47:33;;;;;;;33.80;19.53;;;7.60;80.00;;;;;;7341186;19;111926;-82
2022/03/23 02:50:01;;;;;;;40.87;19.97;;;7.60;80.10;;;;;;7341806;19;111635;-82
2022/03/23 02:52:28;;;;;;;40.73;19.57;;;7.60;80.00;;;;;;7341921;19;111775;-82
2022/03/23 03:03:54;;;;;;;39.70;21.20;;;7.40;80.10;;;;;;7339793;19;111501;-83
2022/03/23 03:06:21;;;;;;;48.67;21.80;;;7.40;80.40;;;;;;7341561;19;112046;-83
2022/03/23 03:08:48;;;;;;;40.03;21.73;;;7.30;80.50;;;;;;7339461;19;110729;-83
2022/03/23 03:11:20;;;;;;;38.57;21.33;;;7.30;80.40;;;;;;7340712;19;111409;-83
2022/03/23 03:13:49;;;;;;;34.87;21.10;;;7.30;80.80;;;;;;7341091;19;111801;-83
2022/03/23 03:16:17;;;;;;;39.03;20.47;;;7.30;80.80;;;;;;7341101;19;111479;-83
2022/03/23 03:18:46;;;;;;;34.17;20.80;;;7.20;80.70;;;;;;7345945;19;111172;-82
2022/03/23 03:21:14;;;;;;;40.60;22.43;;;7.20;80.90;;;;;;7338364;19;110470;-83
2022/03/23 03:23:42;;;;;;;41.33;22.37;;;7.20;81.20;;;;;;7339082;19;111763;-83
2022/03/23 03:26:11;;;;;;;45.17;25.93;;;7.10;81.50;;;;;;7338265;19;113098;-83
2022/03/23 03:28:40;;;;;;;51.87;24.10;;;7.10;82.60;;;;;;7339682;19;110361;-83
2022/03/23 03:31:12;;;;;;;42.77;22.80;;;6.90;84.10;;;;;;7340116;19;111775;-82
2022/03/23 03:33:40;;;;;;;42.50;22.57;;;6.80;83.30;;;;;;7337402;19;110828;-82
2022/03/23 03:36:07;;;;;;;47.97;24.27;;;6.80;82.80;;;;;;7338026;19;110175;-83
2022/03/23 03:38:36;;;;;;;41.90;22.67;;;6.80;83.60;;;;;;7339583;19;111405;-83
2022/03/23 03:41:04;;;;;;;39.47;22.00;;;6.70;83.30;;;;;;7343845;19;111714;-81
2022/03/23 03:43:32;;;;;;;35.63;21.07;;;6.70;83.20;;;;;;7339285;19;110787;-83
2022/03/23 03:46:00;;;;;;;39.47;21.67;;;6.80;83.20;;;;;;7332415;19;112484;-82
2022/03/23 03:48:27;;;;;;;42.07;22.80;;;6.70;83.10;;;;;;7336339;19;113389;-81
2022/03/23 03:50:55;;;;;;;37.03;21.43;;;6.70;84.80;;;;;;7338598;19;111543;-83
2022/03/23 03:53:23;;;;;;;46.80;24.97;;;6.70;83.70;;;;;;7335911;19;112081;-83
2022/03/23 03:55:59;;;;;;;37.00;22.17;;;6.60;85.00;;;;;;7333059;19;110812;-83
2022/03/23 03:58:27;;;;;;;43.43;23.87;;;6.60;84.10;;;;;;7341778;19;111418;-81
2022/03/23 04:00:55;;;;;;;50.90;23.33;;;6.60;84.50;;;;;;7336529;19;111750;-81
2022/03/23 04:03:22;;;;;;;40.60;23.37;;;6.60;84.70;;;;;;7344710;19;113296;-80
2022/03/23 04:05:49;;;;;;;43.33;22.57;;;6.50;85.10;;;;;;7334874;19;111968;-80
2022/03/23 04:08:16;;;;;;;46.73;23.00;;;6.50;85.30;;;;;;7340034;19;110164;-81
2022/03/23 04:10:43;;;;;;;;;;;6.40;87.10;;;;;;7340142;19;111924;-81
2022/03/23 04:13:10;;;;;;;50.30;23.90;;;6.20;88.20;;;;;;7345379;19;110788;-81
2022/03/23 04:15:38;;;;;;;45.33;25.00;;;6.00;87.80;;;;;;7338592;19;110618;-81
2022/03/23 04:18:07;;;;;;;48.83;25.07;;;6.10;88.30;;;;;;7339213;19;111410;-81
2022/03/23 04:20:35;;;;;;;40.93;22.90;;;6.10;88.30;;;;;;7338973;19;111741;-80
2022/03/23 04:23:03;;;;;;;50.17;24.20;;;6.20;88.00;;;;;;7344563;19;110231;-81
2022/03/23 04:25:30;;;;;;;42.70;22.43;;;6.20;87.70;;;;;;7336751;19;113167;-81
2022/03/23 04:27:58;;;;;;;46.07;23.77;;;6.20;87.20;;;;;;7336073;19;110302;-81
2022/03/23 04:30:33;;;;;;;39.87;22.33;;;6.20;87.10;;;;;;7340241;19;110377;-81
2022/03/23 04:33:00;;;;;;;43.17;24.00;;;6.10;87.50;;;;;;7339730;19;110700;-81
2022/03/23 04:35:28;;;;;;;41.93;22.67;;;6.00;87.90;;;;;;7337384;19;110425;-81
2022/03/23 04:37:55;;;;;;;41.37;22.63;;;5.90;88.10;;;;;;7336763;19;112062;-80
2022/03/23 04:40:22;;;;;;;38.80;22.07;;;5.90;88.00;;;;;;7336645;19;111760;-80
2022/03/23 04:42:50;;;;;;;44.10;22.87;;;5.80;88.80;;;;;;7339180;19;110256;-81
2022/03/23 04:45:17;;;;;;;41.23;23.07;;;5.80;89.80;;;;;;7341087;19;111357;-81
2022/03/23 04:47:45;;;;;;;44.93;23.23;;;5.80;89.90;;;;;;7338833;19;110509;-81
2022/03/23 04:50:14;;;;;;;43.47;22.63;;;5.70;90.20;;;;;;7338666;19;111470;-81
2022/03/23 04:52:43;;;;;;;45.30;24.47;;;5.70;89.70;;;;;;7338560;19;115108;-81
2022/03/23 04:55:12;;;;;;;43.97;23.50;;;5.70;90.00;;;;;;7337928;19;110956;-81
2022/03/23 04:57:40;;;;;;;39.97;23.30;;;5.70;90.20;;;;;;7338200;19;112540;-81
2022/03/23 05:00:10;;;;;;;47.43;24.30;;;5.60;90.20;;;;;;7339181;19;112227;-81
2022/03/23 05:02:44;;;;;;;46.67;23.57;;;5.60;90.40;;;;;;7338268;19;111003;-81
2022/03/23 05:05:12;;;;;;;44.53;24.00;;;5.50;90.30;;;;;;7337012;19;111455;-81
2022/03/23 05:07:41;;;;;;;47.60;22.90;;;5.40;90.80;;;;;;7343096;19;111915;-81
2022/03/23 05:10:09;;;;;;;43.67;22.77;;;5.40;91.20;;;;;;7337862;19;110414;-81
2022/03/23 05:12:37;;;;;;;41.83;21.37;;;5.40;90.70;;;;;;7334891;19;113029;-81
2022/03/23 05:15:06;;;;;;;41.87;23.13;;;5.40;90.40;;;;;;7335927;19;111140;-81
2022/03/23 05:17:33;;;;;;;40.30;23.63;;;5.50;90.60;;;;;;7335869;19;110354;-81
2022/03/23 05:20:01;;;;;;;45.10;22.33;;;5.40;90.40;;;;;;7336889;19;111859;-81
2022/03/23 05:22:28;;;;;;;42.17;22.50;;;5.40;90.30;;;;;;7335362;19;111702;-81
2022/03/23 05:24:55;;;;;;;46.07;22.23;;;5.40;90.30;;;;;;7335817;19;111485;-81
2022/03/23 05:27:22;;;;;;;46.63;22.83;;;5.40;90.50;;;;;;7335925;19;111885;-81
2022/03/23 05:29:49;;;;;;;40.77;22.87;;;5.40;90.50;;;;;;7342722;19;110789;-81
2022/03/23 05:32:18;;;;;;;48.57;23.87;;;5.30;90.70;;;;;;7337319;19;111795;-81
2022/03/23 05:34:49;;;;;;;40.70;22.40;;;5.30;91.00;;;;;;7338033;19;111114;-81
2022/03/23 05:37:17;;;;;;;37.10;22.27;;;5.20;90.80;;;;;;7335871;19;111635;-81
2022/03/23 05:39:44;;;;;;;48.90;22.00;;;5.30;90.60;;;;;;7338043;19;112040;-81
2022/03/23 05:42:12;;;;;;;53.77;21.23;;;5.30;90.70;;;;;;7335497;19;111809;-81
2022/03/23 05:44:40;;;;;;;49.53;23.50;;;5.30;90.80;;;;;;7334293;19;111396;-81
2022/03/23 05:47:07;;;;;;;45.53;23.37;;;5.20;90.70;;;;;;7332827;19;112925;-81
2022/03/23 05:49:35;;;;;;;47.43;23.23;;;5.20;91.30;;;;;;7336874;19;110295;-81
2022/03/23 05:52:02;;;;;;;43.27;22.87;;;5.10;91.30;;;;;;7342565;19;111468;-80
2022/03/23 05:54:29;;;;;;;46.77;23.20;;;5.10;91.40;;;;;;7336210;19;110004;-82
2022/03/23 05:56:57;;;;;;;44.20;22.30;;;5.10;91.30;;;;;;7335697;19;110675;-81
2022/03/23 05:59:24;;;;;;;46.40;22.70;;;5.20;91.30;;;;;;7334468;19;111806;-81
2022/03/23 06:01:51;;;;;;;50.07;23.30;;;5.20;91.50;;;;;;7335500;19;110873;-81
2022/03/23 06:04:18;;;;;;;48.37;23.03;;;5.20;91.50;;;;;;7337508;19;111243;-81
2022/03/23 06:06:45;;;;;;;40.43;22.37;;;5.20;91.70;;;;;;7331670;19;112249;-81
2022/03/23 06:09:12;;;;;;;47.93;23.53;;;5.20;91.80;;;;;;7335983;19;110905;-81
2022/03/23 06:11:40;;;;;;;47.87;23.87;;;5.20;92.10;;;;;;7335848;19;111521;-81
2022/03/23 06:14:07;;;;;;;45.73;22.73;;;5.20;92.40;;;;;;7341047;19;111208;-81
2022/03/23 06:16:34;;;;;;;47.70;22.53;;;5.20;92.50;;;;;;7332973;19;111716;-82
2022/03/23 06:19:02;;;;;;;49.93;24.17;;;5.20;92.30;;;;;;7334121;19;114243;-83
2022/03/23 06:21:29;;;;;;;50.10;23.93;;;5.20;93.30;;;;;;7334059;19;110364;-84
2022/03/23 06:23:56;;;;;;;49.93;23.57;;;5.20;93.90;;;;;;7330174;19;111309;-83
2022/03/23 06:26:23;;;;;;;49.13;22.43;;;5.20;93.80;;;;;;7332374;19;111886;-84
2022/03/23 06:28:50;;;;;;;59.30;22.67;;;5.30;93.60;;;;;;7335099;19;112034;-84
2022/03/23 06:31:17;;;;;;;49.43;22.17;;;5.40;93.00;;;;;;7334991;19;110952;-85
2022/03/23 06:33:45;;;;;;;42.03;22.30;;;5.40;93.30;;;;;;7338681;19;112575;-84
2022/03/23 06:36:12;;;;;;;39.77;20.93;;;5.50;93.20;;;;;;7334186;19;114407;-84
2022/03/23 06:38:39;;;;;;;45.37;22.77;;;5.60;92.80;;;;;;7334152;19;112250;-84
2022/03/23 06:41:07;;;;;;;49.13;22.57;;;5.70;92.70;;;;;;7334927;19;113526;-84
2022/03/23 06:43:34;;;;;;;45.07;23.13;;;5.80;92.40;;;;;;7333867;19;112757;-84
2022/03/23 06:46:03;;;;;;;45.90;22.90;;;5.90;93.30;;;;;;7330895;19;111795;-85
2022/03/23 06:48:30;;;;;;;44.53;22.87;;;6.00;93.50;;;;;;7335568;19;110364;-84
2022/03/23 06:50:58;;;;;;;48.63;22.90;;;6.10;93.40;;;;;;7332961;19;111452;-83
2022/03/23 06:53:25;;;;;;;42.60;23.53;;;6.20;93.30;;;;;;7331837;19;112844;-85
2022/03/23 06:55:52;;;;;;;52.00;24.87;;;6.30;94.00;;;;;;7338526;19;110962;-85
2022/03/23 06:58:22;;;;;;;47.30;25.33;;;6.40;94.30;;;;;;7335177;19;115759;-84
2022/03/23 07:00:50;;;;;;;53.37;25.50;;;6.50;94.70;;;;;;7333640;19;112943;-83
2022/03/23 07:03:17;;;;;;;49.30;23.77;;;6.50;95.10;;;;;;7333469;19;112923;-85
2022/03/23 07:05:44;;;;;;;59.83;28.73;;;6.60;94.70;;;;;;7332759;19;112190;-85
2022/03/23 07:10:58;;;;;;;51.63;26.07;;;6.80;94.80;;;;;;7341199;19;112674;-86
2022/03/23 07:13:24;;;;;;;;;;;6.90;94.40;;;;;;7343780;19;111962;-86
2022/03/23 07:15:51;;;;;;;53.00;26.10;;;7.00;96.20;;;;;;7342379;19;111580;-87
2022/03/23 07:18:24;;;;;;;69.50;27.90;;;7.10;95.50;;;;;;7346859;19;111806;-86
2022/03/23 07:20:52;;;;;;;56.97;28.10;;;7.30;95.80;;;;;;7340628;19;110581;-85
2022/03/23 07:23:19;;;;;;;56.30;28.00;;;7.50;95.30;;;;;;7338410;19;111396;-86
2022/03/23 07:25:46;;;;;;;47.83;26.77;;;7.60;95.30;;;;;;7340267;19;111271;-85
2022/03/23 07:28:13;;;;;;;60.53;28.10;;;7.70;95.20;;;;;;7342596;19;111081;-86
2022/03/23 07:30:40;;;;;;;56.60;27.33;;;7.90;95.10;;;;;;7339071;19;111403;-87
2022/03/23 07:33:09;;;;;;;55.93;27.17;;;8.00;95.20;;;;;;7340487;19;112164;-85
2022/03/23 07:35:36;;;;;;;64.30;29.40;;;8.20;94.90;;;;;;7341686;19;110475;-85
2022/03/23 07:38:03;;;;;;;70.33;29.50;;;8.40;94.80;;;;;;7341907;19;112162;-86
2022/03/23 07:40:31;;;;;;;67.32;29.92;;;8.50;94.60;;;;;;7345123;19;111690;-88
2022/03/23 07:42:59;;;;;;;55.78;28.95;;;8.70;94.50;;;;;;7341238;19;111551;-86
2022/03/23 07:45:27;;;;;;;55.95;27.77;;;8.80;94.40;;;;;;7339719;19;112274;-86
2022/03/23 07:47:54;;;;;;;55.42;26.08;;;9.00;94.60;;;;;;7336998;19;113377;-86
2022/03/23 07:50:21;;;;;;;46.67;25.15;;;9.10;94.50;;;;;;7341486;19;111403;-86
2022/03/23 07:52:48;;;;;;;44.72;26.30;;;9.10;94.30;;;;;;7340763;19;111875;-87
2022/03/23 07:55:15;;;;;;;45.03;24.73;;;9.30;94.30;;;;;;7340697;19;111478;-86
2022/03/23 07:57:43;;;;;;;47.97;24.08;;;9.40;94.10;;;;;;7338846;19;111687;-85
2022/03/23 08:00:14;;;;;;;45.08;22.95;;;9.50;93.90;;;;;;7340582;19;112171;-86
2022/03/23 08:02:42;;;;;;;45.90;23.88;;;9.70;93.70;;;;;;7346716;19;110122;-85
2022/03/23 08:05:09;;;;;;;47.63;24.40;;;9.80;93.70;;;;;;7339964;19;112274;-85
2022/03/23 08:07:37;;;;;;;39.90;23.90;;;10.00;93.70;;;;;;7340080;19;110135;-86
2022/03/23 08:10:04;;;;;;;38.70;24.42;;;10.10;93.60;;;;;;7337216;19;110785;-85
2022/03/23 08:12:32;;;;;;;39.42;23.85;;;10.20;93.50;;;;;;7340126;19;112103;-86
2022/03/23 08:14:59;;;;;;;42.42;25.30;;;10.40;93.60;;;;;;7340423;19;110352;-86
2022/03/23 08:17:26;;;;;;;50.63;25.90;;;10.50;93.30;;;;;;7339136;19;111798;-86
2022/03/23 08:22:38;;;;;;;40.55;23.65;;;10.70;92.40;;;;;;7338168;19;114161;-86
2022/03/23 08:25:06;;;;;;;42.08;23.30;;;10.80;92.30;;;;;;7344380;19;110600;-86
2022/03/23 08:27:33;;;;;;;40.00;22.48;;;10.90;91.70;;;;;;7336723;19;111248;-85
2022/03/23 08:30:00;;;;;;;43.13;24.40;;;11.00;91.20;;;;;;7339503;19;111519;-86
2022/03/23 08:32:27;;;;;;;40.05;24.25;;;11.10;91.20;;;;;;7337588;19;111156;-87
2022/03/23 08:34:57;;;;;;;42.42;24.42;;;11.10;90.70;;;;;;7339106;19;110021;-86
2022/03/23 08:37:24;;;;;;;42.03;23.05;;;11.20;90.50;;;;;;7337675;19;112201;-86
2022/03/23 08:39:51;;;;;;;46.15;24.33;;;11.30;90.50;;;;;;7337323;19;111945;-85
2022/03/23 08:42:18;;;;;;;39.72;24.75;;;11.40;90.80;;;;;;7336687;19;110510;-86
2022/03/23 08:44:45;;;;;;;42.38;24.70;;;11.50;90.70;;;;;;7339292;19;111466;-85
2022/03/23 08:47:12;;;;;;;42.78;23.35;;;11.60;90.40;;;;;;7334118;19;110806;-85
2022/03/23 08:49:39;;;;;;;39.67;23.42;;;11.70;90.20;;;;;;7338569;19;112043;-85
2022/03/23 08:52:06;;;;;;;41.97;24.90;;;11.80;90.00;;;;;;7338317;19;111902;-85
2022/03/23 08:54:33;;;;;;;38.03;24.00;;;11.90;90.00;;;;;;7338501;19;113041;-85
2022/03/23 08:57:00;;;;;;;45.13;25.77;;;12.10;89.90;;;;;;7338373;19;111093;-85
2022/03/23 08:59:28;;;;;;;43.60;24.45;;;12.20;90.10;;;;;;7335810;19;112117;-85
2022/03/23 09:01:55;;;;;;;41.83;24.92;;;12.40;90.00;;;;;;7337970;19;111161;-85
2022/03/23 09:04:22;;;;;;;42.70;25.40;;;12.50;89.50;;;;;;7337774;19;113057;-85
2022/03/23 09:06:49;;;;;;;42.35;25.75;;;12.60;89.60;;;;;;7341985;19;111786;-85
2022/03/23 09:09:17;;;;;;;39.90;25.23;;;12.70;89.50;;;;;;7342703;19;111795;-88
2022/03/23 09:11:44;;;;;;;44.85;25.90;;;12.80;88.30;;;;;;7340397;19;111650;-87
2022/03/23 09:14:12;;;;;;;46.55;26.27;;;12.90;88.50;;;;;;7337067;19;113263;-87
2022/03/23 09:16:40;;;;;;;44.78;25.83;;;13.00;88.60;;;;;;7338483;19;111765;-87
2022/03/23 09:19:07;;;;;;;48.70;26.38;;;13.10;87.10;;;;;;7336097;19;112004;-87
2022/03/23 09:21:34;;;;;;;49.53;27.27;;;13.20;86.90;;;;;;7336960;19;110589;-86
2022/03/23 09:24:02;;;;;;;46.35;26.05;;;13.30;87.10;;;;;;7335384;19;111459;-87
2022/03/23 09:26:29;;;;;;;44.80;25.98;;;13.50;87.50;;;;;;7336345;19;111813;-86
2022/03/23 09:28:56;;;;;;;53.63;25.83;;;13.60;88.00;;;;;;7343386;19;110478;-87
2022/03/23 09:31:24;;;;;;;48.15;25.67;;;13.80;86.90;;;;;;7336544;19;111914;-87
2022/03/23 09:33:51;;;;;;;43.85;26.38;;;13.90;87.40;;;;;;7337475;19;110589;-86
2022/03/23 09:39:04;;;;;;;41.03;25.75;;;14.20;86.40;;;;;;7335213;19;111939;-87
2022/03/23 09:41:33;;;;;;;48.08;27.05;;;14.30;85.90;;;;;;7337464;19;112116;-86
2022/03/23 09:44:01;;;;;;;64.22;24.77;;;14.40;85.90;;;;;;7337826;19;111481;-87
2022/03/23 09:46:28;;;;;;;46.30;25.13;;;14.50;86.20;;;;;;7335130;19;111865;-86
2022/03/23 09:48:55;;;;;;;48.78;28.08;;;14.70;86.10;;;;;;7335367;19;110230;-86
2022/03/23 09:51:23;;;;;;;47.58;27.20;;;14.90;85.50;;;;;;7342564;19;114401;-86
2022/03/23 09:53:52;;;;;;;41.92;26.20;;;15.00;85.30;;;;;;7335399;19;111056;-87
2022/03/23 09:56:19;;;;;;;47.72;27.48;;;15.20;83.20;;;;;;7335587;19;111582;-87
2022/03/23 09:58:46;;;;;;;40.55;25.20;;;15.30;83.30;;;;;;7337494;19;112671;-87
2022/03/23 10:01:28;;;;;;;43.88;24.52;;;15.40;80.00;;;;;;7335005;19;112891;-87
2022/03/23 10:04:06;;;;;;;54.40;26.40;;;15.50;79.00;;;;;;7337198;19;111700;-86
2022/03/23 10:06:43;;;;;;;53.92;25.63;;;15.50;78.90;;;;;;7334218;19;112155;-87
2022/03/23 10:09:26;;;;;;;46.80;25.85;;;15.60;77.90;;;;;;7336360;19;110195;-87
2022/03/23 10:12:40;;;;;;;45.95;25.58;;;15.70;77.40;;;;;;7336310;19;111512;-86
2022/03/23 10:15:45;;;;;;;48.28;26.42;;;15.80;77.30;;;;;;7341487;19;112334;-86
2022/03/23 10:18:24;;;;;;;45.58;26.38;;;15.90;77.70;;;;;;7334667;19;111981;-86
2022/03/23 10:20:52;;;;;;;45.35;26.67;;;16.00;76.20;;;;;;7336079;19;111529;-86
2022/03/23 10:23:21;;;;;;;48.42;26.67;;;16.10;76.80;;;;;;7334202;19;113459;-87
2022/03/23 10:25:49;;;;;;;49.03;26.85;;;16.20;75.90;;;;;;7336035;19;111487;-86
2022/03/23 10:28:18;;;;;;;39.60;24.73;;;16.30;75.20;;;;;;7333380;19;111684;-86
2022/03/23 10:30:46;;;;;;;40.15;25.10;;;16.30;76.00;;;;;;7335625;19;111195;-86
2022/03/23 10:33:23;;;;;;;45.58;26.33;;;16.40;75.90;;;;;;7333976;19;112133;-87
2022/03/23 10:35:51;;;;;;;49.25;26.60;;;16.50;74.50;;;;;;7340229;19;111793;-87
2022/03/23 10:38:21;;;;;;;61.08;27.95;;;16.60;75.30;;;;;;7334931;19;113262;-88
2022/03/23 10:40:51;;;;;;;66.57;27.95;;;16.70;75.10;;;;;;7333854;19;112469;-88
2022/03/23 10:43:33;;;;;;;47.47;24.48;;;16.80;75.10;;;;;;7343383;19;110368;-86
2022/03/23 10:46:11;;;;;;;41.75;24.50;;;16.90;74.90;;;;;;7339003;19;110692;-85
2022/03/23 10:49:01;;;;;;;53.88;26.40;;;16.90;73.30;;;;;;7341875;19;111917;-86
2022/03/23 10:51:31;;;;;;;49.05;24.73;;;17.10;72.80;;;;;;7342953;19;110685;-87
2022/03/23 10:53:59;;;;;;;39.22;22.17;;;17.10;72.00;;;;;;7340669;19;112008;-86
2022/03/23 10:56:31;;;;;;;46.78;23.92;;;17.30;71.30;;;;;;7339797;19;111146;-88
2022/03/23 10:59:22;;;;;;;41.85;25.40;;;17.40;72.00;;;;;;7346025;19;111781;-87
2022/03/23 11:02:03;;;;;;;42.72;25.42;;;17.60;71.20;;;;;;7339268;19;111759;-87
2022/03/23 11:04:53;;;;;;;39.40;23.20;;;17.70;70.60;;;;;;7340594;19;112145;-87
2022/03/23 11:07:29;;;;;;;39.28;24.25;;;17.80;70.80;;;;;;7338434;19;113048;-85
2022/03/23 11:15:49;;;;;;;45.25;25.58;;;18.10;69.70;;;;;;7341791;19;112002;-86
2022/03/23 11:18:18;;;;;;;37.72;22.52;;;18.20;68.80;;;;;;7339250;19;112320;-86
2022/03/23 11:20:53;;;;;;;39.53;21.92;;;18.30;68.30;;;;;;7341667;19;110180;-85
2022/03/23 11:23:30;;;;;;;40.03;21.80;;;18.40;67.60;;;;;;7344006;19;111466;-85
2022/03/23 11:26:08;;;;;;;37.13;23.05;;;18.50;66.80;;;;;;7338892;19;113319;-85
2022/03/23 11:28:42;;;;;;;38.33;22.17;;;18.60;66.20;;;;;;7337283;19;111701;-85
2022/03/23 11:31:10;;;;;;;32.45;19.77;;;18.70;62.00;;;;;;7340120;19;112231;-88
2022/03/23 11:33:38;;;;;;;28.63;19.98;;;18.70;64.30;;;;;;7341550;19;109993;-87
2022/03/23 11:36:12;;;;;;;25.58;16.60;;;18.80;62.80;;;;;;7338930;19;111532;-86
2022/03/23 11:38:40;;;;;;;31.80;17.83;;;18.90;60.60;;;;;;7340389;19;111546;-87
2022/03/23 11:41:09;;;;;;;28.58;17.60;;;19.10;61.10;;;;;;7341541;19;110229;-87
2022/03/23 11:43:37;;;;;;;34.22;21.10;;;19.20;59.90;;;;;;7342205;19;113430;-86
2022/03/23 11:46:23;;;;;;;29.10;19.90;;;19.30;60.60;;;;;;7344167;19;113262;-87
2022/03/23 11:49:18;;;;;;;31.10;20.38;;;19.40;59.80;;;;;;7338024;19;111500;-87
2022/03/23 11:52:23;;;;;;;42.85;20.35;;;19.50;59.50;;;;;;7338975;19;112090;-86
2022/03/23 11:58:24;;;;;;;28.23;18.77;;;19.70;57.60;;;;;;7341319;19;110795;-87
2022/03/23 12:01:05;;;;;;;41.55;19.55;;;19.80;58.90;;;;;;7339095;19;111927;-87
2022/03/23 12:03:46;;;;;;;31.13;18.30;;;20.00;58.80;;;;;;7338820;19;112839;-86
2022/03/23 12:06:16;;;;;;;28.27;17.88;;;20.10;56.70;;;;;;7339994;19;111631;-87
2022/03/23 12:08:58;;;;;;;26.23;17.40;;;20.20;58.50;;;;;;7336213;19;115024;-87
2022/03/23 12:11:44;;;;;;;26.42;17.73;;;20.30;57.00;;;;;;7345501;19;111877;-86
2022/03/23 12:14:31;;;;;;;23.70;15.93;;;20.40;56.60;;;;;;7340571;19;112259;-86
2022/03/23 12:16:58;;;;;;;25.00;16.92;;;20.50;55.50;;;;;;7340262;19;113338;-86
2022/03/23 12:20:05;;;;;;;24.35;16.20;;;20.60;56.10;;;;;;7339129;19;111829;-87
2022/03/23 12:22:32;;;;;;;27.58;17.13;;;20.80;53.20;;;;;;7339238;19;110137;-86
2022/03/23 12:25:28;;;;;;;28.65;18.10;;;20.80;54.60;;;;;;7339155;19;110429;-87
2022/03/23 12:28:10;;;;;;;25.95;18.35;;;21.00;53.40;;;;;;7339079;19;112065;-87
2022/03/23 12:30:47;;;;;;;27.75;18.27;;;21.10;53.90;;;;;;7337969;19;112649;-87
2022/03/23 12:33:21;;;;;;;34.92;18.98;;;21.10;54.70;;;;;;7338636;19;110282;-87
2022/03/23 12:35:49;;;;;;;25.10;18.95;;;21.30;54.20;;;;;;7342691;19;111637;-87
2022/03/23 12:38:28;;;;;;;27.10;17.45;;;21.40;54.70;;;;;;7337341;19;110383;-87
2022/03/23 12:41:04;;;;;;;28.58;18.55;;;21.50;55.20;;;;;;7336729;19;112242;-87
2022/03/23 12:43:46;;;;;;;22.75;15.32;;;21.70;54.60;;;;;;7337043;19;114437;-87
2022/03/23 12:46:42;;;;;;;24.10;15.30;;;21.70;52.50;;;;;;7335341;19;110601;-86
2022/03/23 12:57:49;;;;;;;25.65;18.02;;;22.10;52.20;;;;;;7342655;19;111425;-86
2022/03/23 13:00:32;;;;;;;25.15;17.73;;;22.20;52.70;;;;;;7338968;19;110010;-87
2022/03/23 13:03:05;;;;;;;24.58;16.35;;;22.40;51.50;;;;;;7339078;19;111309;-88
2022/03/23 13:05:33;;;;;;;31.73;18.08;;;22.40;52.10;;;;;;7334331;19;111750;-88
2022/03/23 13:08:01;;;;;;;26.45;16.80;;;22.50;52.20;;;;;;7337350;19;110518;-86
2022/03/23 13:10:28;;;;;;;22.02;16.30;;;22.60;50.80;;;;;;7337596;19;111111;-87
2022/03/23 13:13:05;;;;;;;20.33;15.02;;;22.80;50.60;;;;;;7339193;19;111840;-87